sensor_id;sensor_type;location;lat;lon;timestamp;pressure;altitude;pressure_sealevel;temperature;humidity
81509;BME280;70930;52.412;13.554;2023-10-19T00:00:43;100092.50;;;5.95;74.38
81509;BME280;70930;52.412;13.554;2023-10-19T00:03:33;100092.19;;;5.98;73.45
81509;BME280;70930;52.412;13.554;2023-10-19T00:06:19;100099.75;;;5.93;73.81
81509;BME280;70930;52.412;13.554;2023-10-19T00:09:07;100093.78;;;5.91;73.75
81509;BME280;70930;52.412;13.554;2023-10-19T00:11:56;100095.50;;;6.08;73.11
81509;BME280;70930;52.412;13.554;2023-10-19T00:14:42;100090.22;;;6.00;73.64
81509;BME280;70930;52.412;13.554;2023-10-19T00:17:33;100087.44;;;6.02;73.59
81509;BME280;70930;52.412;13.554;2023-10-19T00:20:19;100087.88;;;5.97;73.16
81509;BME280;70930;52.412;13.554;2023-10-19T00:23:34;100079.03;;;5.98;72.86
81509;BME280;70930;52.412;13.554;2023-10-19T00:26:20;100072.88;;;5.89;73.49
81509;BME280;70930;52.412;13.554;2023-10-19T00:29:05;100078.84;;;6.00;72.74
81509;BME280;70930;52.412;13.554;2023-10-19T00:32:11;100060.59;;;6.06;73.20
81509;BME280;70930;52.412;13.554;2023-10-19T00:34:59;100036.63;;;5.91;73.52
81509;BME280;70930;52.412;13.554;2023-10-19T00:37:55;100041.81;;;6.09;73.38
81509;BME280;70930;52.412;13.554;2023-10-19T00:40:43;100025.50;;;6.14;73.27
81509;BME280;70930;52.412;13.554;2023-10-19T00:43:34;100041.81;;;6.09;73.42
81509;BME280;70930;52.412;13.554;2023-10-19T00:46:28;100031.59;;;5.98;73.85
81509;BME280;70930;52.412;13.554;2023-10-19T00:49:18;100028.63;;;6.09;73.75
81509;BME280;70930;52.412;13.554;2023-10-19T00:52:07;100011.31;;;5.99;73.92
81509;BME280;70930;52.412;13.554;2023-10-19T00:55:04;100014.28;;;6.04;73.18
81509;BME280;70930;52.412;13.554;2023-10-19T00:57:51;100002.41;;;6.08;73.31
81509;BME280;70930;52.412;13.554;2023-10-19T01:00:39;100006.38;;;6.12;73.42
81509;BME280;70930;52.412;13.554;2023-10-19T01:03:29;100000.47;;;6.02;73.17
81509;BME280;70930;52.412;13.554;2023-10-19T01:06:20;100008.38;;;6.02;73.73
81509;BME280;70930;52.412;13.554;2023-10-19T01:09:06;99995.31;;;5.92;73.67
81509;BME280;70930;52.412;13.554;2023-10-19T01:11:52;99995.84;;;6.04;73.49
81509;BME280;70930;52.412;13.554;2023-10-19T01:14:40;99976.75;;;5.94;73.49
81509;BME280;70930;52.412;13.554;2023-10-19T01:17:26;99977.56;;;6.02;73.49
81509;BME280;70930;52.412;13.554;2023-10-19T01:20:17;99984.28;;;6.13;73.15
81509;BME280;70930;52.412;13.554;2023-10-19T01:23:08;99979.88;;;6.13;72.91
81509;BME280;70930;52.412;13.554;2023-10-19T01:25:58;99969.47;;;6.12;72.91
81509;BME280;70930;52.412;13.554;2023-10-19T01:28:44;99957.78;;;5.98;73.77
81509;BME280;70930;52.412;13.554;2023-10-19T01:31:33;99952.34;;;6.00;73.99
81509;BME280;70930;52.412;13.554;2023-10-19T01:34:23;99957.47;;;6.01;73.70
81509;BME280;70930;52.412;13.554;2023-10-19T01:37:12;99954.47;;;6.21;73.23
81509;BME280;70930;52.412;13.554;2023-10-19T01:39:58;99951.19;;;6.10;73.20
81509;BME280;70930;52.412;13.554;2023-10-19T01:42:43;99947.75;;;6.10;73.04
81509;BME280;70930;52.412;13.554;2023-10-19T01:45:29;99941.81;;;6.08;73.40
81509;BME280;70930;52.412;13.554;2023-10-19T01:48:14;99940.47;;;6.12;74.13
81509;BME280;70930;52.412;13.554;2023-10-19T01:51:05;99931.56;;;6.13;72.70
81509;BME280;70930;52.412;13.554;2023-10-19T01:53:51;99929.44;;;6.08;72.84
81509;BME280;70930;52.412;13.554;2023-10-19T01:56:36;99927.31;;;6.04;73.18
81509;BME280;70930;52.412;13.554;2023-10-19T01:59:34;99914.31;;;5.94;73.13
81509;BME280;70930;52.412;13.554;2023-10-19T02:02:19;99901.13;;;5.94;72.84
81509;BME280;70930;52.412;13.554;2023-10-19T02:05:07;99908.53;;;5.99;73.37
81509;BME280;70930;52.412;13.554;2023-10-19T02:07:58;99887.97;;;5.94;73.02
81509;BME280;70930;52.412;13.554;2023-10-19T02:10:49;99900.94;;;5.87;73.44
81509;BME280;70930;52.412;13.554;2023-10-19T02:13:35;99893.84;;;5.88;73.41
81509;BME280;70930;52.412;13.554;2023-10-19T02:16:22;99895.34;;;5.82;74.01
81509;BME280;70930;52.412;13.554;2023-10-19T02:19:08;99883.63;;;5.85;74.08
81509;BME280;70930;52.412;13.554;2023-10-19T02:21:58;99888.59;;;5.96;74.13
81509;BME280;70930;52.412;13.554;2023-10-19T02:24:44;99878.38;;;5.85;74.50
81509;BME280;70930;52.412;13.554;2023-10-19T02:27:32;99870.16;;;5.80;73.75
81509;BME280;70930;52.412;13.554;2023-10-19T02:30:18;99880.88;;;5.95;73.82
81509;BME280;70930;52.412;13.554;2023-10-19T02:33:06;99868.66;;;5.85;74.00
81509;BME280;70930;52.412;13.554;2023-10-19T02:35:53;99875.75;;;5.93;74.14
81509;BME280;70930;52.412;13.554;2023-10-19T02:38:42;99857.97;;;6.03;73.86
81509;BME280;70930;52.412;13.554;2023-10-19T02:41:45;99858.16;;;6.02;74.22
81509;BME280;70930;52.412;13.554;2023-10-19T02:44:38;99849.25;;;5.78;74.32
81509;BME280;70930;52.412;13.554;2023-10-19T02:47:24;99845.94;;;6.01;74.84
81509;BME280;70930;52.412;13.554;2023-10-19T02:50:09;99843.44;;;6.15;73.31
81509;BME280;70930;52.412;13.554;2023-10-19T02:53:02;99834.91;;;6.05;74.11
81509;BME280;70930;52.412;13.554;2023-10-19T02:55:49;99828.16;;;6.03;73.85
81509;BME280;70930;52.412;13.554;2023-10-19T02:58:39;99826.53;;;6.02;74.13
81509;BME280;70930;52.412;13.554;2023-10-19T03:01:27;99834.09;;;5.97;74.50
81509;BME280;70930;52.412;13.554;2023-10-19T03:04:22;99817.44;;;5.96;73.72
81509;BME280;70930;52.412;13.554;2023-10-19T03:07:09;99824.88;;;5.93;73.71
81509;BME280;70930;52.412;13.554;2023-10-19T03:09:58;99817.16;;;5.75;73.83
81509;BME280;70930;52.412;13.554;2023-10-19T03:12:46;99819.78;;;5.75;74.62
81509;BME280;70930;52.412;13.554;2023-10-19T03:15:32;99802.78;;;5.77;74.40
81509;BME280;70930;52.412;13.554;2023-10-19T03:18:18;99800.31;;;5.84;74.34
81509;BME280;70930;52.412;13.554;2023-10-19T03:21:04;99798.38;;;5.78;74.76
81509;BME280;70930;52.412;13.554;2023-10-19T03:23:51;99792.91;;;5.87;73.90
81509;BME280;70930;52.412;13.554;2023-10-19T03:26:36;99796.03;;;5.91;74.29
81509;BME280;70930;52.412;13.554;2023-10-19T03:29:22;99790.75;;;5.91;74.17
81509;BME280;70930;52.412;13.554;2023-10-19T03:32:16;99787.00;;;5.77;74.31
81509;BME280;70930;52.412;13.554;2023-10-19T03:35:02;99794.06;;;5.85;74.31
81509;BME280;70930;52.412;13.554;2023-10-19T03:37:49;99786.63;;;5.88;73.97
81509;BME280;70930;52.412;13.554;2023-10-19T03:40:37;99779.44;;;5.74;74.61
81509;BME280;70930;52.412;13.554;2023-10-19T03:43:26;99794.22;;;5.91;74.78
81509;BME280;70930;52.412;13.554;2023-10-19T03:46:12;99775.97;;;5.82;74.37
81509;BME280;70930;52.412;13.554;2023-10-19T03:49:22;99770.88;;;5.72;74.81
81509;BME280;70930;52.412;13.554;2023-10-19T03:52:08;99762.34;;;5.70;74.50
81509;BME280;70930;52.412;13.554;2023-10-19T03:54:54;99750.31;;;5.68;75.04
81509;BME280;70930;52.412;13.554;2023-10-19T03:57:39;99759.00;;;5.76;74.98
81509;BME280;70930;52.412;13.554;2023-10-19T04:00:29;99743.38;;;5.75;74.67
81509;BME280;70930;52.412;13.554;2023-10-19T04:03:18;99746.16;;;5.81;74.55
81509;BME280;70930;52.412;13.554;2023-10-19T04:06:03;99741.69;;;5.90;74.09
81509;BME280;70930;52.412;13.554;2023-10-19T04:08:50;99741.53;;;5.83;74.29
81509;BME280;70930;52.412;13.554;2023-10-19T04:11:36;99742.53;;;5.82;74.57
81509;BME280;70930;52.412;13.554;2023-10-19T04:14:42;99742.84;;;5.96;73.91
81509;BME280;70930;52.412;13.554;2023-10-19T04:17:27;99739.41;;;5.79;74.75
81509;BME280;70930;52.412;13.554;2023-10-19T04:20:15;99733.78;;;5.90;74.43
81509;BME280;70930;52.412;13.554;2023-10-19T04:23:03;99724.22;;;5.97;74.22
81509;BME280;70930;52.412;13.554;2023-10-19T04:25:56;99740.22;;;5.87;74.79
81509;BME280;70930;52.412;13.554;2023-10-19T04:28:51;99737.41;;;5.97;74.23
81509;BME280;70930;52.412;13.554;2023-10-19T04:31:38;99732.03;;;5.74;74.53
81509;BME280;70930;52.412;13.554;2023-10-19T04:34:34;99715.56;;;5.72;74.73
81509;BME280;70930;52.412;13.554;2023-10-19T04:37:21;99715.88;;;5.77;74.99
81509;BME280;70930;52.412;13.554;2023-10-19T04:40:10;99706.19;;;5.61;75.18
81509;BME280;70930;52.412;13.554;2023-10-19T04:42:55;99717.56;;;5.70;75.06
81509;BME280;70930;52.412;13.554;2023-10-19T04:45:41;99706.84;;;5.72;75.94
81509;BME280;70930;52.412;13.554;2023-10-19T04:48:27;99694.63;;;5.79;74.60
81509;BME280;70930;52.412;13.554;2023-10-19T04:51:12;99698.53;;;5.91;74.71
81509;BME280;70930;52.412;13.554;2023-10-19T04:53:58;99698.63;;;5.66;75.27
81509;BME280;70930;52.412;13.554;2023-10-19T04:56:43;99695.94;;;5.83;75.01
81509;BME280;70930;52.412;13.554;2023-10-19T04:59:30;99693.34;;;5.75;75.20
81509;BME280;70930;52.412;13.554;2023-10-19T05:02:21;99694.41;;;5.88;74.85
81509;BME280;70930;52.412;13.554;2023-10-19T05:05:06;99697.56;;;5.84;75.26
81509;BME280;70930;52.412;13.554;2023-10-19T05:07:55;99687.84;;;5.84;74.69
81509;BME280;70930;52.412;13.554;2023-10-19T05:10:41;99685.59;;;5.73;75.00
81509;BME280;70930;52.412;13.554;2023-10-19T05:13:31;99683.41;;;5.85;75.23
81509;BME280;70930;52.412;13.554;2023-10-19T05:16:21;99681.31;;;5.72;75.79
81509;BME280;70930;52.412;13.554;2023-10-19T05:19:07;99668.03;;;5.57;76.03
81509;BME280;70930;52.412;13.554;2023-10-19T05:21:55;99667.19;;;5.65;75.85
81509;BME280;70930;52.412;13.554;2023-10-19T05:24:43;99660.06;;;5.74;74.70
81509;BME280;70930;52.412;13.554;2023-10-19T05:27:29;99651.56;;;5.63;76.07
81509;BME280;70930;52.412;13.554;2023-10-19T05:30:15;99646.59;;;5.69;75.53
81509;BME280;70930;52.412;13.554;2023-10-19T05:33:06;99643.13;;;5.68;76.86
81509;BME280;70930;52.412;13.554;2023-10-19T05:35:52;99642.50;;;5.58;77.19
81509;BME280;70930;52.412;13.554;2023-10-19T05:38:37;99640.53;;;5.60;77.85
81509;BME280;70930;52.412;13.554;2023-10-19T05:41:23;99658.13;;;5.68;77.22
81509;BME280;70930;52.412;13.554;2023-10-19T05:44:09;99662.06;;;5.72;77.28
81509;BME280;70930;52.412;13.554;2023-10-19T05:46:57;99666.88;;;5.60;77.28
81509;BME280;70930;52.412;13.554;2023-10-19T05:49:43;99660.75;;;5.68;77.44
81509;BME280;70930;52.412;13.554;2023-10-19T05:52:29;99664.56;;;5.57;76.56
81509;BME280;70930;52.412;13.554;2023-10-19T05:55:15;99683.91;;;5.80;76.74
81509;BME280;70930;52.412;13.554;2023-10-19T05:58:01;99678.63;;;5.88;76.73
81509;BME280;70930;52.412;13.554;2023-10-19T06:00:46;99681.66;;;5.69;77.28
81509;BME280;70930;52.412;13.554;2023-10-19T06:03:32;99683.91;;;5.80;78.15
81509;BME280;70930;52.412;13.554;2023-10-19T06:06:20;99686.25;;;5.75;77.78
81509;BME280;70930;52.412;13.554;2023-10-19T06:09:06;99688.56;;;5.78;79.06
81509;BME280;70930;52.412;13.554;2023-10-19T06:11:57;99697.81;;;5.66;78.24
81509;BME280;70930;52.412;13.554;2023-10-19T06:14:43;99686.66;;;5.48;80.36
81509;BME280;70930;52.412;13.554;2023-10-19T06:17:29;99682.00;;;5.66;79.48
81509;BME280;70930;52.412;13.554;2023-10-19T06:20:15;99662.81;;;5.33;79.75
81509;BME280;70930;52.412;13.554;2023-10-19T06:23:09;99647.88;;;5.17;80.76
81509;BME280;70930;52.412;13.554;2023-10-19T06:25:57;99642.28;;;5.20;81.03
81509;BME280;70930;52.412;13.554;2023-10-19T06:28:45;99642.44;;;5.18;80.57
81509;BME280;70930;52.412;13.554;2023-10-19T06:31:31;99647.56;;;5.12;81.45
81509;BME280;70930;52.412;13.554;2023-10-19T06:34:17;99635.41;;;5.11;82.39
81509;BME280;70930;52.412;13.554;2023-10-19T06:37:06;99635.56;;;5.09;81.09
81509;BME280;70930;52.412;13.554;2023-10-19T06:39:54;99628.13;;;5.21;82.14
81509;BME280;70930;52.412;13.554;2023-10-19T06:42:39;99616.13;;;5.18;81.62
81509;BME280;70930;52.412;13.554;2023-10-19T06:45:25;99606.06;;;5.22;81.34
81509;BME280;70930;52.412;13.554;2023-10-19T06:48:11;99627.00;;;5.24;81.49
81509;BME280;70930;52.412;13.554;2023-10-19T06:50:57;99611.69;;;5.27;81.73
81509;BME280;70930;52.412;13.554;2023-10-19T06:53:42;99614.66;;;5.24;81.83
81509;BME280;70930;52.412;13.554;2023-10-19T06:56:28;99613.47;;;5.35;82.20
81509;BME280;70930;52.412;13.554;2023-10-19T06:59:13;99615.34;;;5.57;81.28
81509;BME280;70930;52.412;13.554;2023-10-19T07:01:59;99613.22;;;5.53;80.54
81509;BME280;70930;52.412;13.554;2023-10-19T07:04:49;99594.16;;;5.51;81.00
81509;BME280;70930;52.412;13.554;2023-10-19T07:07:35;99592.38;;;5.43;80.46
81509;BME280;70930;52.412;13.554;2023-10-19T07:10:20;99583.16;;;5.47;80.29
81509;BME280;70930;52.412;13.554;2023-10-19T07:13:08;99591.53;;;5.51;81.43
81509;BME280;70930;52.412;13.554;2023-10-19T07:15:57;99597.16;;;5.39;80.93
81509;BME280;70930;52.412;13.554;2023-10-19T07:18:44;99590.69;;;5.58;80.42
81509;BME280;70930;52.412;13.554;2023-10-19T07:21:32;99589.94;;;5.73;82.31
81509;BME280;70930;52.412;13.554;2023-10-19T07:24:24;99597.72;;;5.66;81.74
81509;BME280;70930;52.412;13.554;2023-10-19T07:27:10;99575.81;;;5.65;81.41
81509;BME280;70930;52.412;13.554;2023-10-19T07:30:04;99581.47;;;5.54;81.51
81509;BME280;70930;52.412;13.554;2023-10-19T07:32:54;99593.06;;;5.76;79.88
81509;BME280;70930;52.412;13.554;2023-10-19T07:35:48;99586.19;;;5.67;80.29
81509;BME280;70930;52.412;13.554;2023-10-19T07:38:38;99586.41;;;5.49;79.94
81509;BME280;70930;52.412;13.554;2023-10-19T07:41:24;99597.72;;;5.66;80.37
81509;BME280;70930;52.412;13.554;2023-10-19T07:44:09;99602.81;;;5.68;80.87
81509;BME280;70930;52.412;13.554;2023-10-19T07:46:57;99601.22;;;5.58;80.35
81509;BME280;70930;52.412;13.554;2023-10-19T07:49:42;99599.75;;;5.87;80.11
81509;BME280;70930;52.412;13.554;2023-10-19T07:52:28;99606.69;;;5.80;80.02
81509;BME280;70930;52.412;13.554;2023-10-19T07:55:15;99597.94;;;5.96;80.19
81509;BME280;70930;52.412;13.554;2023-10-19T07:58:01;99600.59;;;6.19;80.33
81509;BME280;70930;52.412;13.554;2023-10-19T08:00:48;99602.09;;;6.13;80.28
81509;BME280;70930;52.412;13.554;2023-10-19T08:03:34;99596.47;;;6.16;79.76
81509;BME280;70930;52.412;13.554;2023-10-19T08:06:20;99598.25;;;6.24;79.45
81509;BME280;70930;52.412;13.554;2023-10-19T08:09:08;99609.03;;;6.14;80.09
81509;BME280;70930;52.412;13.554;2023-10-19T08:11:56;99599.31;;;6.14;80.45
81509;BME280;70930;52.412;13.554;2023-10-19T08:14:44;99604.53;;;6.23;79.49
81509;BME280;70930;52.412;13.554;2023-10-19T08:17:34;99592.66;;;5.96;79.40
81509;BME280;70930;52.412;13.554;2023-10-19T08:20:19;99585.66;;;6.11;79.10
81509;BME280;70930;52.412;13.554;2023-10-19T08:23:34;99572.69;;;6.24;79.34
81509;BME280;70930;52.412;13.554;2023-10-19T08:26:20;99584.06;;;6.02;78.32
81509;BME280;70930;52.412;13.554;2023-10-19T08:29:07;99577.06;;;6.17;80.20
81509;BME280;70930;52.412;13.554;2023-10-19T08:31:58;99586.47;;;6.34;77.57
81509;BME280;70930;52.412;13.554;2023-10-19T08:34:44;99576.06;;;6.18;78.74
81509;BME280;70930;52.412;13.554;2023-10-19T08:37:29;99568.16;;;6.18;79.46
81509;BME280;70930;52.412;13.554;2023-10-19T08:40:15;99557.66;;;6.33;79.42
81509;BME280;70930;52.412;13.554;2023-10-19T08:43:01;99551.78;;;6.46;78.34
81509;BME280;70930;52.412;13.554;2023-10-19T08:45:49;99534.22;;;6.38;79.11
81509;BME280;70930;52.412;13.554;2023-10-19T08:48:35;99531.06;;;6.20;79.75
81509;BME280;70930;52.412;13.554;2023-10-19T08:51:30;99530.44;;;6.32;79.55
81509;BME280;70930;52.412;13.554;2023-10-19T08:54:20;99534.63;;;6.50;78.94
81509;BME280;70930;52.412;13.554;2023-10-19T08:57:06;99548.44;;;6.52;78.97
81509;BME280;70930;52.412;13.554;2023-10-19T08:59:54;99549.53;;;6.57;79.08
81509;BME280;70930;52.412;13.554;2023-10-19T09:02:44;99543.53;;;6.63;78.59
81509;BME280;70930;52.412;13.554;2023-10-19T09:05:29;99538.19;;;6.72;79.04
81509;BME280;70930;52.412;13.554;2023-10-19T09:08:16;99534.94;;;6.84;78.33
81509;BME280;70930;52.412;13.554;2023-10-19T09:11:06;99522.03;;;6.89;78.41
81509;BME280;70930;52.412;13.554;2023-10-19T09:13:53;99519.56;;;7.03;77.91
81509;BME280;70930;52.412;13.554;2023-10-19T09:16:53;99523.03;;;6.88;79.06
81509;BME280;70930;52.412;13.554;2023-10-19T09:19:45;99531.91;;;6.87;78.23
81509;BME280;70930;52.412;13.554;2023-10-19T09:22:36;99519.66;;;6.80;78.50
81509;BME280;70930;52.412;13.554;2023-10-19T09:25:32;99515.72;;;6.76;79.84
81509;BME280;70930;52.412;13.554;2023-10-19T09:28:23;99512.09;;;6.92;79.63
81509;BME280;70930;52.412;13.554;2023-10-19T09:31:09;99507.66;;;6.92;79.75
81509;BME280;70930;52.412;13.554;2023-10-19T09:33:55;99514.03;;;7.12;79.42
81509;BME280;70930;52.412;13.554;2023-10-19T09:36:42;99512.44;;;7.18;79.25
81509;BME280;70930;52.412;13.554;2023-10-19T09:39:32;99497.09;;;6.92;79.40
81509;BME280;70930;52.412;13.554;2023-10-19T09:42:21;99506.91;;;6.98;80.38
81509;BME280;70930;52.412;13.554;2023-10-19T09:45:08;99501.09;;;7.03;80.20
81509;BME280;70930;52.412;13.554;2023-10-19T09:47:55;99495.44;;;7.06;80.02
81509;BME280;70930;52.412;13.554;2023-10-19T09:50:41;99509.38;;;7.00;79.54
81509;BME280;70930;52.412;13.554;2023-10-19T09:53:29;99503.56;;;7.04;79.11
81509;BME280;70930;52.412;13.554;2023-10-19T09:56:25;99497.72;;;7.09;80.12
81509;BME280;70930;52.412;13.554;2023-10-19T09:59:33;99506.47;;;7.09;80.96
81509;BME280;70930;52.412;13.554;2023-10-19T10:02:23;99496.91;;;7.23;80.48
81509;BME280;70930;52.412;13.554;2023-10-19T10:08:32;99485.78;;;7.13;79.82
81509;BME280;70930;52.412;13.554;2023-10-19T10:11:28;99498.28;;;7.04;81.71
81509;BME280;70930;52.412;13.554;2023-10-19T10:14:25;99489.53;;;7.04;82.28
81509;BME280;70930;52.412;13.554;2023-10-19T10:17:16;99496.72;;;6.95;83.85
81509;BME280;70930;52.412;13.554;2023-10-19T10:23:23;99488.72;;;6.74;86.14
81509;BME280;70930;52.412;13.554;2023-10-19T10:26:18;99490.63;;;6.80;85.13
81509;BME280;70930;52.412;13.554;2023-10-19T10:29:15;99493.44;;;6.93;86.03
81509;BME280;70930;52.412;13.554;2023-10-19T10:32:08;99475.84;;;6.56;85.96
81509;BME280;70930;52.412;13.554;2023-10-19T10:34:57;99473.16;;;6.79;85.12
81509;BME280;70930;52.412;13.554;2023-10-19T10:37:53;99466.50;;;6.83;85.34
81509;BME280;70930;52.412;13.554;2023-10-19T10:43:28;99463.69;;;6.70;84.67
81509;BME280;70930;52.412;13.554;2023-10-19T10:46:14;99468.31;;;6.82;85.39
81509;BME280;70930;52.412;13.554;2023-10-19T10:49:08;99470.06;;;6.75;86.67
81509;BME280;70930;52.412;13.554;2023-10-19T10:51:54;99465.53;;;6.69;86.51
81509;BME280;70930;52.412;13.554;2023-10-19T10:54:41;99466.94;;;6.72;85.67
81509;BME280;70930;52.412;13.554;2023-10-19T10:57:31;99470.59;;;6.71;87.02
81509;BME280;70930;52.412;13.554;2023-10-19T11:00:20;99452.50;;;6.68;88.18
81509;BME280;70930;52.412;13.554;2023-10-19T11:03:08;99455.75;;;6.40;87.73
81509;BME280;70930;52.412;13.554;2023-10-19T11:05:54;99447.16;;;6.61;88.08
81509;BME280;70930;52.412;13.554;2023-10-19T11:08:40;99444.59;;;6.53;87.97
81509;BME280;70930;52.412;13.554;2023-10-19T11:11:26;99439.22;;;6.46;88.33
81509;BME280;70930;52.412;13.554;2023-10-19T11:14:12;99457.41;;;6.41;88.68
81509;BME280;70930;52.412;13.554;2023-10-19T11:17:13;99452.38;;;6.31;90.03
81509;BME280;70930;52.412;13.554;2023-10-19T11:20:03;99445.72;;;6.35;89.46
81509;BME280;70930;52.412;13.554;2023-10-19T11:22:51;99443.03;;;6.29;90.22
81509;BME280;70930;52.412;13.554;2023-10-19T11:25:46;99441.16;;;6.14;91.09
81509;BME280;70930;52.412;13.554;2023-10-19T11:28:33;99432.16;;;6.24;92.00
81509;BME280;70930;52.412;13.554;2023-10-19T11:31:23;99428.09;;;6.36;91.01
81509;BME280;70930;52.412;13.554;2023-10-19T11:34:09;99415.75;;;6.51;90.67
81509;BME280;70930;52.412;13.554;2023-10-19T11:36:58;99419.19;;;6.52;90.38
81509;BME280;70930;52.412;13.554;2023-10-19T11:39:44;99425.84;;;6.48;91.20
81509;BME280;70930;52.412;13.554;2023-10-19T11:42:31;99411.59;;;6.57;90.51
81509;BME280;70930;52.412;13.554;2023-10-19T11:45:19;99418.94;;;6.47;91.64
81509;BME280;70930;52.412;13.554;2023-10-19T11:48:04;99402.56;;;6.51;90.44
81509;BME280;70930;52.412;13.554;2023-10-19T11:50:50;99412.38;;;6.43;90.97
81509;BME280;70930;52.412;13.554;2023-10-19T11:53:40;99405.19;;;6.51;90.95
81509;BME280;70930;52.412;13.554;2023-10-19T11:56:26;99401.84;;;6.57;90.95
81509;BME280;70930;52.412;13.554;2023-10-19T11:59:12;99407.03;;;6.66;91.18
81509;BME280;70930;52.412;13.554;2023-10-19T12:01:58;99404.19;;;6.67;91.66
81509;BME280;70930;52.412;13.554;2023-10-19T12:04:46;99407.75;;;6.74;91.34
81509;BME280;70930;52.412;13.554;2023-10-19T12:07:32;99398.66;;;6.77;90.49
81509;BME280;70930;52.412;13.554;2023-10-19T12:10:22;99396.25;;;6.97;89.60
81509;BME280;70930;52.412;13.554;2023-10-19T12:13:14;99395.56;;;6.73;89.83
81509;BME280;70930;52.412;13.554;2023-10-19T12:16:01;99393.97;;;6.94;89.18
81509;BME280;70930;52.412;13.554;2023-10-19T12:18:50;99399.81;;;7.04;88.65
81509;BME280;70930;52.412;13.554;2023-10-19T12:21:35;99395.91;;;6.85;90.51
81509;BME280;70930;52.412;13.554;2023-10-19T12:24:25;99389.28;;;6.74;89.76
81509;BME280;70930;52.412;13.554;2023-10-19T12:27:14;99388.56;;;6.80;89.66
81509;BME280;70930;52.412;13.554;2023-10-19T12:30:06;99383.53;;;6.85;89.41
81509;BME280;70930;52.412;13.554;2023-10-19T12:33:05;99378.16;;;6.79;89.84
81509;BME280;70930;52.412;13.554;2023-10-19T12:35:57;99378.16;;;6.79;90.56
81509;BME280;70930;52.412;13.554;2023-10-19T12:38:43;99372.19;;;6.70;90.79
81509;BME280;70930;52.412;13.554;2023-10-19T12:41:31;99384.72;;;6.83;89.65
81509;BME280;70930;52.412;13.554;2023-10-19T12:44:20;99382.63;;;6.78;90.34
81509;BME280;70930;52.412;13.554;2023-10-19T12:47:08;99377.00;;;6.81;90.51
81509;BME280;70930;52.412;13.554;2023-10-19T12:49:55;99374.97;;;6.83;90.26
81509;BME280;70930;52.412;13.554;2023-10-19T12:52:44;99377.56;;;6.77;90.59
81509;BME280;70930;52.412;13.554;2023-10-19T12:55:30;99366.81;;;6.63;90.63
81509;BME280;70930;52.412;13.554;2023-10-19T12:58:16;99370.34;;;6.71;91.24
81509;BME280;70930;52.412;13.554;2023-10-19T13:01:22;99381.16;;;6.91;90.20
81509;BME280;70930;52.412;13.554;2023-10-19T13:04:14;99375.97;;;6.82;90.21
81509;BME280;70930;52.412;13.554;2023-10-19T13:07:01;99378.09;;;6.72;91.15
81509;BME280;70930;52.412;13.554;2023-10-19T13:09:48;99388.91;;;6.92;90.80
81509;BME280;70930;52.412;13.554;2023-10-19T13:12:41;99393.91;;;6.87;90.10
81509;BME280;70930;52.412;13.554;2023-10-19T13:15:34;99395.19;;;6.76;91.42
81509;BME280;70930;52.412;13.554;2023-10-19T13:18:21;99389.00;;;6.84;90.75
81509;BME280;70930;52.412;13.554;2023-10-19T13:21:10;99385.25;;;6.78;90.93
81509;BME280;70930;52.412;13.554;2023-10-19T13:24:04;99387.81;;;6.86;91.07
81509;BME280;70930;52.412;13.554;2023-10-19T13:26:54;99395.47;;;6.81;90.63
81509;BME280;70930;52.412;13.554;2023-10-19T13:30:17;99387.03;;;6.56;90.97
81509;BME280;70930;52.412;13.554;2023-10-19T13:37:17;99369.34;;;6.72;91.00
81509;BME280;70930;52.412;13.554;2023-10-19T13:40:04;99370.91;;;6.66;91.37
81509;BME280;70930;52.412;13.554;2023-10-19T13:42:51;99363.81;;;6.67;90.86
81509;BME280;70930;52.412;13.554;2023-10-19T13:45:37;99361.72;;;6.62;91.55
81509;BME280;70930;52.412;13.554;2023-10-19T13:48:23;99367.38;;;6.59;91.35
81509;BME280;70930;52.412;13.554;2023-10-19T13:51:09;99376.38;;;6.50;91.45
81509;BME280;70930;52.412;13.554;2023-10-19T13:54:00;99367.91;;;6.69;90.93
81509;BME280;70930;52.412;13.554;2023-10-19T13:56:46;99378.00;;;6.51;90.71
81509;BME280;70930;52.412;13.554;2023-10-19T13:59:31;99373.53;;;6.51;91.01
81509;BME280;70930;52.412;13.554;2023-10-19T14:02:20;99370.81;;;6.59;91.22
81509;BME280;70930;52.412;13.554;2023-10-19T14:05:06;99365.84;;;6.50;90.82
81509;BME280;70930;52.412;13.554;2023-10-19T14:07:52;99368.28;;;6.66;90.67
81509;BME280;70930;52.412;13.554;2023-10-19T14:10:38;99364.72;;;6.59;91.71
81509;BME280;70930;52.412;13.554;2023-10-19T14:13:26;99364.91;;;6.57;90.75
81509;BME280;70930;52.412;13.554;2023-10-19T14:16:12;99359.00;;;6.70;89.76
81509;BME280;70930;52.412;13.554;2023-10-19T14:18:58;99355.97;;;6.88;89.76
81509;BME280;70930;52.412;13.554;2023-10-19T14:21:44;99360.75;;;6.99;90.56
81509;BME280;70930;52.412;13.554;2023-10-19T14:24:31;99357.69;;;6.96;90.17
81509;BME280;70930;52.412;13.554;2023-10-19T14:27:16;99355.03;;;6.96;89.06
81509;BME280;70930;52.412;13.554;2023-10-19T14:30:02;99353.75;;;6.92;89.78
81509;BME280;70930;52.412;13.554;2023-10-19T14:32:49;99348.69;;;6.75;90.73
81509;BME280;70930;52.412;13.554;2023-10-19T14:35:34;99340.72;;;6.69;90.17
81509;BME280;70930;52.412;13.554;2023-10-19T14:38:21;99346.25;;;6.74;90.25
81509;BME280;70930;52.412;13.554;2023-10-19T14:41:10;99338.34;;;6.59;91.59
81509;BME280;70930;52.412;13.554;2023-10-19T14:43:56;99332.00;;;6.68;90.55
81509;BME280;70930;52.412;13.554;2023-10-19T14:46:41;99341.44;;;6.62;91.69
81509;BME280;70930;52.412;13.554;2023-10-19T14:49:27;99337.97;;;6.77;90.92
81509;BME280;70930;52.412;13.554;2023-10-19T14:52:12;99351.41;;;6.97;89.95
81509;BME280;70930;52.412;13.554;2023-10-19T14:54:57;99342.31;;;6.84;90.25
81509;BME280;70930;52.412;13.554;2023-10-19T14:57:46;99337.31;;;6.75;90.32
81509;BME280;70930;52.412;13.554;2023-10-19T15:00:34;99330.69;;;6.64;91.40
81509;BME280;70930;52.412;13.554;2023-10-19T15:03:22;99332.59;;;6.70;91.72
81509;BME280;70930;52.412;13.554;2023-10-19T15:06:09;99327.59;;;6.75;91.71